sensor_id;sensor_type;location;lat;lon;timestamp;pressure;altitude;pressure_sealevel;temperature
64394;BMP280;50712;49.506;10.400;2022-11-20T00:00:04;97526.31;;;4.40
64394;BMP280;50712;49.506;10.400;2022-11-20T00:00:37;97530.50;;;4.41
64394;BMP280;50712;49.506;10.400;2022-11-20T00:01:08;97531.28;;;4.41
64394;BMP280;50712;49.506;10.400;2022-11-20T00:01:40;97521.25;;;4.42
64394;BMP280;50712;49.506;10.400;2022-11-20T00:02:11;97525.50;;;4.43
64394;BMP280;50712;49.506;10.400;2022-11-20T00:02:41;97523.94;;;4.42
64394;BMP280;50712;49.506;10.400;2022-11-20T00:03:12;97522.78;;;4.43
64394;BMP280;50712;49.506;10.400;2022-11-20T00:03:42;97528.19;;;4.43
64394;BMP280;50712;49.506;10.400;2022-11-20T00:04:13;97525.50;;;4.43
64394;BMP280;50712;49.506;10.400;2022-11-20T00:04:44;97525.06;;;4.44
64394;BMP280;50712;49.506;10.400;2022-11-20T00:05:14;97524.28;;;4.44
64394;BMP280;50712;49.506;10.400;2022-11-20T00:05:45;97531.22;;;4.45
64394;BMP280;50712;49.506;10.400;2022-11-20T00:06:16;97519.66;;;4.44
64394;BMP280;50712;49.506;10.400;2022-11-20T00:06:48;97525.84;;;4.45
64394;BMP280;50712;49.506;10.400;2022-11-20T00:07:19;97516.97;;;4.44
64394;BMP280;50712;49.506;10.400;2022-11-20T00:07:49;97526.59;;;4.45
64394;BMP280;50712;49.506;10.400;2022-11-20T00:08:19;97518.50;;;4.45
64394;BMP280;50712;49.506;10.400;2022-11-20T00:08:50;97521.19;;;4.45
64394;BMP280;50712;49.506;10.400;2022-11-20T00:09:24;97515.81;;;4.45
64394;BMP280;50712;49.506;10.400;2022-11-20T00:09:54;97515.81;;;4.45
64394;BMP280;50712;49.506;10.400;2022-11-20T00:10:24;97522.38;;;4.44
64394;BMP280;50712;49.506;10.400;2022-11-20T00:10:55;97520.44;;;4.45
64394;BMP280;50712;49.506;10.400;2022-11-20T00:11:26;97517.75;;;4.45
64394;BMP280;50712;49.506;10.400;2022-11-20T00:11:57;97516.97;;;4.44
64394;BMP280;50712;49.506;10.400;2022-11-20T00:12:27;97516.97;;;4.44
64394;BMP280;50712;49.506;10.400;2022-11-20T00:12:58;97523.13;;;4.45
64394;BMP280;50712;49.506;10.400;2022-11-20T00:13:28;97521.19;;;4.45
64394;BMP280;50712;49.506;10.400;2022-11-20T00:13:59;97513.09;;;4.45
64394;BMP280;50712;49.506;10.400;2022-11-20T00:14:31;97515.03;;;4.45
64394;BMP280;50712;49.506;10.400;2022-11-20T00:15:01;97518.50;;;4.45
64394;BMP280;50712;49.506;10.400;2022-11-20T00:15:32;97515.81;;;4.45
64394;BMP280;50712;49.506;10.400;2022-11-20T00:16:04;97519.28;;;4.46
64394;BMP280;50712;49.506;10.400;2022-11-20T00:16:35;97514.63;;;4.46
64394;BMP280;50712;49.506;10.400;2022-11-20T00:17:05;97520.78;;;4.47
64394;BMP280;50712;49.506;10.400;2022-11-20T00:17:36;97518.84;;;4.47
64394;BMP280;50712;49.506;10.400;2022-11-20T00:18:06;97516.91;;;4.48
64394;BMP280;50712;49.506;10.400;2022-11-20T00:18:36;97515.38;;;4.47
64394;BMP280;50712;49.506;10.400;2022-11-20T00:19:07;97516.16;;;4.47
64394;BMP280;50712;49.506;10.400;2022-11-20T00:19:37;97514.22;;;4.48
64394;BMP280;50712;49.506;10.400;2022-11-20T00:20:08;97516.91;;;4.48
64394;BMP280;50712;49.506;10.400;2022-11-20T00:20:38;97517.69;;;4.48
64394;BMP280;50712;49.506;10.400;2022-11-20T00:21:12;97521.16;;;4.49
64394;BMP280;50712;49.506;10.400;2022-11-20T00:21:47;97518.44;;;4.49
64394;BMP280;50712;49.506;10.400;2022-11-20T00:22:21;97516.53;;;4.49
64394;BMP280;50712;49.506;10.400;2022-11-20T00:22:51;97514.56;;;4.50
64394;BMP280;50712;49.506;10.400;2022-11-20T00:23:22;97519.97;;;4.50
64394;BMP280;50712;49.506;10.400;2022-11-20T00:23:54;97520.72;;;4.50
64394;BMP280;50712;49.506;10.400;2022-11-20T00:24:25;97523.41;;;4.50
64394;BMP280;50712;49.506;10.400;2022-11-20T00:24:55;97518.78;;;4.51
64394;BMP280;50712;49.506;10.400;2022-11-20T00:25:27;97517.63;;;4.52
64394;BMP280;50712;49.506;10.400;2022-11-20T00:26:04;97523.03;;;4.52
64394;BMP280;50712;49.506;10.400;2022-11-20T00:26:45;97515.69;;;4.53
64394;BMP280;50712;49.506;10.400;2022-11-20T00:27:15;97516.44;;;4.53
64394;BMP280;50712;49.506;10.400;2022-11-20T00:27:46;97515.25;;;4.54
64394;BMP280;50712;49.506;10.400;2022-11-20T00:28:16;97519.88;;;4.53
64394;BMP280;50712;49.506;10.400;2022-11-20T00:28:51;97512.56;;;4.54
64394;BMP280;50712;49.506;10.400;2022-11-20T00:29:21;97525.28;;;4.53
64394;BMP280;50712;49.506;10.400;2022-11-20T00:29:51;97521.41;;;4.54
64394;BMP280;50712;49.506;10.400;2022-11-20T00:30:22;97517.19;;;4.53
64394;BMP280;50712;49.506;10.400;2022-11-20T00:30:52;97521.41;;;4.54
64394;BMP280;50712;49.506;10.400;2022-11-20T00:31:30;97514.47;;;4.53
64394;BMP280;50712;49.506;10.400;2022-11-20T00:32:00;97519.88;;;4.53
64394;BMP280;50712;49.506;10.400;2022-11-20T00:32:31;97516.03;;;4.54
64394;BMP280;50712;49.506;10.400;2022-11-20T00:33:01;97509.84;;;4.54
64394;BMP280;50712;49.506;10.400;2022-11-20T00:33:32;97515.25;;;4.54
64394;BMP280;50712;49.506;10.400;2022-11-20T00:34:02;97523.34;;;4.54
64394;BMP280;50712;49.506;10.400;2022-11-20T00:34:33;97517.94;;;4.54
64394;BMP280;50712;49.506;10.400;2022-11-20T00:35:03;97519.88;;;4.53
64394;BMP280;50712;49.506;10.400;2022-11-20T00:35:34;97519.88;;;4.53
64394;BMP280;50712;49.506;10.400;2022-11-20T00:36:08;97525.28;;;4.53
64394;BMP280;50712;49.506;10.400;2022-11-20T00:36:40;97517.19;;;4.53
64394;BMP280;50712;49.506;10.400;2022-11-20T00:37:10;97516.44;;;4.53
64394;BMP280;50712;49.506;10.400;2022-11-20T00:37:41;97521.84;;;4.53
64394;BMP280;50712;49.506;10.400;2022-11-20T00:38:11;97527.22;;;4.53
64394;BMP280;50712;49.506;10.400;2022-11-20T00:38:42;97525.28;;;4.53
64394;BMP280;50712;49.506;10.400;2022-11-20T00:39:13;97525.28;;;4.53
64394;BMP280;50712;49.506;10.400;2022-11-20T00:39:43;97514.47;;;4.53
64394;BMP280;50712;49.506;10.400;2022-11-20T00:40:13;97518.41;;;4.53
64394;BMP280;50712;49.506;10.400;2022-11-20T00:40:44;97526.50;;;4.53
64394;BMP280;50712;49.506;10.400;2022-11-20T00:41:14;97517.19;;;4.53
64394;BMP280;50712;49.506;10.400;2022-11-20T00:41:45;97516.44;;;4.53
64394;BMP280;50712;49.506;10.400;2022-11-20T00:42:16;97525.28;;;4.53
64394;BMP280;50712;49.506;10.400;2022-11-20T00:42:46;97515.69;;;4.53
64394;BMP280;50712;49.506;10.400;2022-11-20T00:43:16;97521.09;;;4.53
64394;BMP280;50712;49.506;10.400;2022-11-20T00:43:47;97519.13;;;4.53
64394;BMP280;50712;49.506;10.400;2022-11-20T00:44:17;97516.44;;;4.53
64394;BMP280;50712;49.506;10.400;2022-11-20T00:44:47;97518.41;;;4.53
64394;BMP280;50712;49.506;10.400;2022-11-20T00:45:18;97521.09;;;4.53
64394;BMP280;50712;49.506;10.400;2022-11-20T00:45:48;97513.00;;;4.53
64394;BMP280;50712;49.506;10.400;2022-11-20T00:46:19;97519.88;;;4.53
64394;BMP280;50712;49.506;10.400;2022-11-20T00:46:52;97511.03;;;4.53
64394;BMP280;50712;49.506;10.400;2022-11-20T00:47:22;97517.94;;;4.54
64394;BMP280;50712;49.506;10.400;2022-11-20T00:47:52;97517.19;;;4.53
64394;BMP280;50712;49.506;10.400;2022-11-20T00:48:23;97513.75;;;4.53
64394;BMP280;50712;49.506;10.400;2022-11-20T00:48:53;97516.03;;;4.54
64394;BMP280;50712;49.506;10.400;2022-11-20T00:49:24;97517.94;;;4.54
64394;BMP280;50712;49.506;10.400;2022-11-20T00:49:54;97515.25;;;4.54
64394;BMP280;50712;49.506;10.400;2022-11-20T00:50:24;97509.84;;;4.54
64394;BMP280;50712;49.506;10.400;2022-11-20T00:50:55;97512.56;;;4.54
64394;BMP280;50712;49.506;10.400;2022-11-20T00:51:26;97512.56;;;4.54
64394;BMP280;50712;49.506;10.400;2022-11-20T00:51:57;97506.00;;;4.55
64394;BMP280;50712;49.506;10.400;2022-11-20T00:52:27;97519.47;;;4.55
64394;BMP280;50712;49.506;10.400;2022-11-20T00:52:57;97516.78;;;4.55
64394;BMP280;50712;49.506;10.400;2022-11-20T00:53:28;97512.16;;;4.56
64394;BMP280;50712;49.506;10.400;2022-11-20T00:53:58;97514.09;;;4.55
64394;BMP280;50712;49.506;10.400;2022-11-20T00:54:29;97518.72;;;4.54
64394;BMP280;50712;49.506;10.400;2022-11-20T00:55:00;97510.63;;;4.54
64394;BMP280;50712;49.506;10.400;2022-11-20T00:55:30;97504.06;;;4.56
64394;BMP280;50712;49.506;10.400;2022-11-20T00:56:07;97510.63;;;4.54
64394;BMP280;50712;49.506;10.400;2022-11-20T00:56:40;97506.00;;;4.55
64394;BMP280;50712;49.506;10.400;2022-11-20T00:57:10;97521.41;;;4.54
64394;BMP280;50712;49.506;10.400;2022-11-20T00:57:41;97511.38;;;4.55
64394;BMP280;50712;49.506;10.400;2022-11-20T00:58:11;97513.31;;;4.54
64394;BMP280;50712;49.506;10.400;2022-11-20T00:58:42;97518.72;;;4.54
64394;BMP280;50712;49.506;10.400;2022-11-20T00:59:13;97511.78;;;4.53
64394;BMP280;50712;49.506;10.400;2022-11-20T00:59:44;97512.56;;;4.54
64394;BMP280;50712;49.506;10.400;2022-11-20T01:00:14;97511.38;;;4.55
64394;BMP280;50712;49.506;10.400;2022-11-20T01:00:45;97511.38;;;4.55
64394;BMP280;50712;49.506;10.400;2022-11-20T01:01:17;97514.84;;;4.56
64394;BMP280;50712;49.506;10.400;2022-11-20T01:01:48;97516.78;;;4.55
64394;BMP280;50712;49.506;10.400;2022-11-20T01:02:19;97519.06;;;4.57
64394;BMP280;50712;49.506;10.400;2022-11-20T01:02:49;97519.47;;;4.55
64394;BMP280;50712;49.506;10.400;2022-11-20T01:03:19;97516.34;;;4.57
64394;BMP280;50712;49.506;10.400;2022-11-20T01:03:50;97514.44;;;4.57
64394;BMP280;50712;49.506;10.400;2022-11-20T01:04:22;97516.34;;;4.57
64394;BMP280;50712;49.506;10.400;2022-11-20T01:04:52;97514.44;;;4.57
64394;BMP280;50712;49.506;10.400;2022-11-20T01:05:22;97514.44;;;4.57
64394;BMP280;50712;49.506;10.400;2022-11-20T01:05:52;97520.59;;;4.58
64394;BMP280;50712;49.506;10.400;2022-11-20T01:06:53;97514.44;;;4.57
64394;BMP280;50712;49.506;10.400;2022-11-20T01:07:23;97515.97;;;4.58
64394;BMP280;50712;49.506;10.400;2022-11-20T01:07:54;97510.56;;;4.58
64394;BMP280;50712;49.506;10.400;2022-11-20T01:08:24;97511.34;;;4.59
64394;BMP280;50712;49.506;10.400;2022-11-20T01:08:55;97510.56;;;4.58
64394;BMP280;50712;49.506;10.400;2022-11-20T01:09:28;97505.16;;;4.58
64394;BMP280;50712;49.506;10.400;2022-11-20T01:09:58;97504.41;;;4.58
64394;BMP280;50712;49.506;10.400;2022-11-20T01:10:28;97507.09;;;4.58
64394;BMP280;50712;49.506;10.400;2022-11-20T01:11:00;97505.94;;;4.59
64394;BMP280;50712;49.506;10.400;2022-11-20T01:11:34;97505.16;;;4.58
64394;BMP280;50712;49.506;10.400;2022-11-20T01:12:05;97504.41;;;4.58
64394;BMP280;50712;49.506;10.400;2022-11-20T01:12:36;97503.63;;;4.57
64394;BMP280;50712;49.506;10.400;2022-11-20T01:13:06;97506.34;;;4.57
64394;BMP280;50712;49.506;10.400;2022-11-20T01:13:55;97506.34;;;4.57
64394;BMP280;50712;49.506;10.400;2022-11-20T01:14:27;97508.28;;;4.57
64394;BMP280;50712;49.506;10.400;2022-11-20T01:14:57;97509.03;;;4.57
64394;BMP280;50712;49.506;10.400;2022-11-20T01:15:28;97506.00;;;4.55
64394;BMP280;50712;49.506;10.400;2022-11-20T01:16:02;97509.81;;;4.58
64394;BMP280;50712;49.506;10.400;2022-11-20T01:16:45;97504.06;;;4.56
64394;BMP280;50712;49.506;10.400;2022-11-20T01:17:18;97509.81;;;4.58
64394;BMP280;50712;49.506;10.400;2022-11-20T01:17:48;97509.03;;;4.57
64394;BMP280;50712;49.506;10.400;2022-11-20T01:18:18;97512.50;;;4.58
64394;BMP280;50712;49.506;10.400;2022-11-20T01:18:50;97509.03;;;4.57
64394;BMP280;50712;49.506;10.400;2022-11-20T01:19:21;97506.34;;;4.57
64394;BMP280;50712;49.506;10.400;2022-11-20T01:19:52;97509.03;;;4.57
64394;BMP280;50712;49.506;10.400;2022-11-20T01:20:23;97504.06;;;4.56
64394;BMP280;50712;49.506;10.400;2022-11-20T01:20:53;97500.94;;;4.57
64394;BMP280;50712;49.506;10.400;2022-11-20T01:21:28;97509.81;;;4.58
64394;BMP280;50712;49.506;10.400;2022-11-20T01:22:00;97512.50;;;4.58
64394;BMP280;50712;49.506;10.400;2022-11-20T01:22:30;97506.34;;;4.57
64394;BMP280;50712;49.506;10.400;2022-11-20T01:23:01;97507.88;;;4.58
64394;BMP280;50712;49.506;10.400;2022-11-20T01:23:36;97507.09;;;4.58
64394;BMP280;50712;49.506;10.400;2022-11-20T01:24:08;97503.63;;;4.57
64394;BMP280;50712;49.506;10.400;2022-11-20T01:24:42;97501.72;;;4.58
64394;BMP280;50712;49.506;10.400;2022-11-20T01:25:12;97499.78;;;4.58
64394;BMP280;50712;49.506;10.400;2022-11-20T01:25:42;97497.09;;;4.58
64394;BMP280;50712;49.506;10.400;2022-11-20T01:26:14;97495.56;;;4.57
64394;BMP280;50712;49.506;10.400;2022-11-20T01:26:47;97498.25;;;4.57
64394;BMP280;50712;49.506;10.400;2022-11-20T01:27:19;97495.56;;;4.57
64394;BMP280;50712;49.506;10.400;2022-11-20T01:27:50;97497.47;;;4.57
64394;BMP280;50712;49.506;10.400;2022-11-20T01:28:20;97509.81;;;4.58
64394;BMP280;50712;49.506;10.400;2022-11-20T01:28:50;97501.72;;;4.58
64394;BMP280;50712;49.506;10.400;2022-11-20T01:29:22;97501.72;;;4.58
64394;BMP280;50712;49.506;10.400;2022-11-20T01:29:54;97500.94;;;4.57
64394;BMP280;50712;49.506;10.400;2022-11-20T01:30:24;97502.47;;;4.58
64394;BMP280;50712;49.506;10.400;2022-11-20T01:30:54;97506.34;;;4.57
64394;BMP280;50712;49.506;10.400;2022-11-20T01:31:32;97507.88;;;4.58
64394;BMP280;50712;49.506;10.400;2022-11-20T01:32:04;97507.09;;;4.58
64394;BMP280;50712;49.506;10.400;2022-11-20T01:32:34;97499.00;;;4.58
64394;BMP280;50712;49.506;10.400;2022-11-20T01:33:05;97511.34;;;4.59
64394;BMP280;50712;49.506;10.400;2022-11-20T01:33:35;97508.63;;;4.59
64394;BMP280;50712;49.506;10.400;2022-11-20T01:34:07;97508.22;;;4.60
64394;BMP280;50712;49.506;10.400;2022-11-20T01:34:40;97505.94;;;4.59
64394;BMP280;50712;49.506;10.400;2022-11-20T01:35:10;97502.81;;;4.60
64394;BMP280;50712;49.506;10.400;2022-11-20T01:35:40;97508.22;;;4.60
64394;BMP280;50712;49.506;10.400;2022-11-20T01:36:11;97502.81;;;4.60
64394;BMP280;50712;49.506;10.400;2022-11-20T01:36:43;97508.22;;;4.60
64394;BMP280;50712;49.506;10.400;2022-11-20T01:37:13;97512.84;;;4.60
64394;BMP280;50712;49.506;10.400;2022-11-20T01:37:43;97508.97;;;4.61
64394;BMP280;50712;49.506;10.400;2022-11-20T01:38:17;97503.59;;;4.61
64394;BMP280;50712;49.506;10.400;2022-11-20T01:38:50;97510.50;;;4.62
64394;BMP280;50712;49.506;10.400;2022-11-20T01:39:23;97513.22;;;4.62
64394;BMP280;50712;49.506;10.400;2022-11-20T01:39:55;97514.38;;;4.61
64394;BMP280;50712;49.506;10.400;2022-11-20T01:40:25;97505.50;;;4.60
64394;BMP280;50712;49.506;10.400;2022-11-20T01:40:55;97511.28;;;4.62
64394;BMP280;50712;49.506;10.400;2022-11-20T01:41:26;97510.50;;;4.62
64394;BMP280;50712;49.506;10.400;2022-11-20T01:42:18;97511.69;;;4.61
64394;BMP280;50712;49.506;10.400;2022-11-20T01:43:39;97512.44;;;4.61
64394;BMP280;50712;49.506;10.400;2022-11-20T01:44:03;97512.84;;;4.60
64394;BMP280;50712;49.506;10.400;2022-11-20T01:44:51;97502.81;;;4.60
64394;BMP280;50712;49.506;10.400;2022-11-20T01:46:22;97512.09;;;4.59
64394;BMP280;50712;49.506;10.400;2022-11-20T01:47:36;97504.41;;;4.58
64394;BMP280;50712;49.506;10.400;2022-11-20T01:48:10;97507.88;;;4.58
64394;BMP280;50712;49.506;10.400;2022-11-20T01:48:49;97503.63;;;4.57
64394;BMP280;50712;49.506;10.400;2022-11-20T01:49:28;97505.56;;;4.57
64394;BMP280;50712;49.506;10.400;2022-11-20T01:50:06;97501.75;;;4.54
64394;BMP280;50712;49.506;10.400;2022-11-20T01:50:45;97510.31;;;4.53
64394;BMP280;50712;49.506;10.400;2022-11-20T01:51:20;97506.06;;;4.51
64394;BMP280;50712;49.506;10.400;2022-11-20T01:51:59;97504.53;;;4.50
64394;BMP280;50712;49.506;10.400;2022-11-20T01:52:36;97503.03;;;4.49
64394;BMP280;50712;49.506;10.400;2022-11-20T01:53:12;97505.75;;;4.49
64394;BMP280;50712;49.506;10.400;2022-11-20T01:53:47;97499.97;;;4.47
64394;BMP280;50712;49.506;10.400;2022-11-20T01:54:23;97507.28;;;4.47
64394;BMP280;50712;49.506;10.400;2022-11-20T01:55:00;97504.25;;;4.45
64394;BMP280;50712;49.506;10.400;2022-11-20T01:55:37;97506.94;;;4.45
64394;BMP280;50712;49.506;10.400;2022-11-20T01:56:13;97505.03;;;4.45
64394;BMP280;50712;49.506;10.400;2022-11-20T01:56:45;97500.78;;;4.44
64394;BMP280;50712;49.506;10.400;2022-11-20T01:57:18;97498.84;;;4.45
64394;BMP280;50712;49.506;10.400;2022-11-20T01:57:50;97501.56;;;4.45
64394;BMP280;50712;49.506;10.400;2022-11-20T01:58:22;97496.56;;;4.43
64394;BMP280;50712;49.506;10.400;2022-11-20T01:58:54;97502.72;;;4.44
64394;BMP280;50712;49.506;10.400;2022-11-20T01:59:28;97500.03;;;4.44
64394;BMP280;50712;49.506;10.400;2022-11-20T02:00:01;97495.81;;;4.43
64394;BMP280;50712;49.506;10.400;2022-11-20T02:00:42;97498.50;;;4.43
64394;BMP280;50712;49.506;10.400;2022-11-20T02:01:12;97495.06;;;4.42
64394;BMP280;50712;49.506;10.400;2022-11-20T02:01:44;97486.97;;;4.42
64394;BMP280;50712;49.506;10.400;2022-11-20T02:02:14;97498.50;;;4.43
64394;BMP280;50712;49.506;10.400;2022-11-20T02:02:55;97495.06;;;4.42
64394;BMP280;50712;49.506;10.400;2022-11-20T02:03:28;97491.59;;;4.42
64394;BMP280;50712;49.506;10.400;2022-11-20T02:03:59;97494.28;;;4.42
64394;BMP280;50712;49.506;10.400;2022-11-20T02:04:30;97503.16;;;4.42
64394;BMP280;50712;49.506;10.400;2022-11-20T02:05:02;97494.28;;;4.42
64394;BMP280;50712;49.506;10.400;2022-11-20T02:05:56;97488.91;;;4.42
64394;BMP280;50712;49.506;10.400;2022-11-20T02:06:39;97490.44;;;4.43
64394;BMP280;50712;49.506;10.400;2022-11-20T02:07:14;97485.78;;;4.43
64394;BMP280;50712;49.506;10.400;2022-11-20T02:07:44;97493.84;;;4.43
64394;BMP280;50712;49.506;10.400;2022-11-20T02:08:16;97490.44;;;4.43
64394;BMP280;50712;49.506;10.400;2022-11-20T02:08:48;97488.47;;;4.43
64394;BMP280;50712;49.506;10.400;2022-11-20T02:09:18;97495.06;;;4.42
64394;BMP280;50712;49.506;10.400;2022-11-20T02:09:48;97492.34;;;4.42
64394;BMP280;50712;49.506;10.400;2022-11-20T02:10:19;97485.44;;;4.41
64394;BMP280;50712;49.506;10.400;2022-11-20T02:10:50;97492.75;;;4.41
64394;BMP280;50712;49.506;10.400;2022-11-20T02:11:20;97483.91;;;4.40
64394;BMP280;50712;49.506;10.400;2022-11-20T02:11:52;97491.25;;;4.40
64394;BMP280;50712;49.506;10.400;2022-11-20T02:12:22;97496.63;;;4.40
64394;BMP280;50712;49.506;10.400;2022-11-20T02:13:12;97497.38;;;4.40
64394;BMP280;50712;49.506;10.400;2022-11-20T02:14:01;97495.44;;;4.41
64394;BMP280;50712;49.506;10.400;2022-11-20T02:14:31;97488.13;;;4.41
64394;BMP280;50712;49.506;10.400;2022-11-20T02:15:01;97497.75;;;4.42
64394;BMP280;50712;49.506;10.400;2022-11-20T02:15:32;97487.72;;;4.43
64394;BMP280;50712;49.506;10.400;2022-11-20T02:16:03;97494.63;;;4.44
64394;BMP280;50712;49.506;10.400;2022-11-20T02:16:39;97496.16;;;4.45
64394;BMP280;50712;49.506;10.400;2022-11-20T02:17:14;97490.78;;;4.45
64394;BMP280;50712;49.506;10.400;2022-11-20T02:17:45;97498.09;;;4.44
64394;BMP280;50712;49.506;10.400;2022-11-20T02:18:16;97494.22;;;4.45
64394;BMP280;50712;49.506;10.400;2022-11-20T02:18:47;97493.03;;;4.46
64394;BMP280;50712;49.506;10.400;2022-11-20T02:19:22;97495.75;;;4.46
64394;BMP280;50712;49.506;10.400;2022-11-20T02:19:57;97501.91;;;4.47
64394;BMP280;50712;49.506;10.400;2022-11-20T02:20:27;97491.13;;;4.47
64394;BMP280;50712;49.506;10.400;2022-11-20T02:22:21;97496.09;;;4.48
64394;BMP280;50712;49.506;10.400;2022-11-20T02:23:06;97494.94;;;4.49
64394;BMP280;50712;49.506;10.400;2022-11-20T02:24:04;97491.47;;;4.49
64394;BMP280;50712;49.506;10.400;2022-11-20T02:24:39;97495.69;;;4.50
64394;BMP280;50712;49.506;10.400;2022-11-20T02:25:12;97496.09;;;4.48
64394;BMP280;50712;49.506;10.400;2022-11-20T02:25:44;97493.41;;;4.48
64394;BMP280;50712;49.506;10.400;2022-11-20T02:26:17;97491.88;;;4.47
64394;BMP280;50712;49.506;10.400;2022-11-20T02:27:33;97501.13;;;4.46
64394;BMP280;50712;49.506;10.400;2022-11-20T02:28:04;97505.78;;;4.46
64394;BMP280;50712;49.506;10.400;2022-11-20T02:28:35;97503.84;;;4.46
64394;BMP280;50712;49.506;10.400;2022-11-20T02:29:05;97498.84;;;4.45
64394;BMP280;50712;49.506;10.400;2022-11-20T02:29:40;97497.69;;;4.46
64394;BMP280;50712;49.506;10.400;2022-11-20T02:30:15;97493.47;;;4.45
64394;BMP280;50712;49.506;10.400;2022-11-20T02:30:45;97492.69;;;4.44
64394;BMP280;50712;49.506;10.400;2022-11-20T02:31:15;97491.94;;;4.44
64394;BMP280;50712;49.506;10.400;2022-11-20T02:31:46;97494.63;;;4.44
64394;BMP280;50712;49.506;10.400;2022-11-20T02:32:20;97499.25;;;4.43
64394;BMP280;50712;49.506;10.400;2022-11-20T02:32:53;97492.34;;;4.42
64394;BMP280;50712;49.506;10.400;2022-11-20T02:33:23;97499.69;;;4.42
64394;BMP280;50712;49.506;10.400;2022-11-20T02:33:56;97496.22;;;4.41
64394;BMP280;50712;49.506;10.400;2022-11-20T02:34:28;97492.75;;;4.41
64394;BMP280;50712;49.506;10.400;2022-11-20T02:35:06;97488.13;;;4.41
64394;BMP280;50712;49.506;10.400;2022-11-20T02:35:56;97494.69;;;4.40
64394;BMP280;50712;49.506;10.400;2022-11-20T02:36:27;97495.88;;;4.39
64394;BMP280;50712;49.506;10.400;2022-11-20T02:37:00;97493.19;;;4.39
64394;BMP280;50712;49.506;10.400;2022-11-20T02:37:32;97490.47;;;4.39
64394;BMP280;50712;49.506;10.400;2022-11-20T02:38:06;97491.66;;;4.38
64394;BMP280;50712;49.506;10.400;2022-11-20T02:38:37;97490.88;;;4.38
64394;BMP280;50712;49.506;10.400;2022-11-20T02:39:08;97496.25;;;4.38
64394;BMP280;50712;49.506;10.400;2022-11-20T02:39:42;97489.34;;;4.37
64394;BMP280;50712;49.506;10.400;2022-11-20T02:40:16;97489.34;;;4.37
64394;BMP280;50712;49.506;10.400;2022-11-20T02:40:46;97487.41;;;4.37
64394;BMP280;50712;49.506;10.400;2022-11-20T02:41:16;97479.31;;;4.37
64394;BMP280;50712;49.506;10.400;2022-11-20T02:41:47;97488.94;;;4.38
64394;BMP280;50712;49.506;10.400;2022-11-20T02:42:18;97491.31;;;4.36
64394;BMP280;50712;49.506;10.400;2022-11-20T02:42:52;97486.25;;;4.38
64394;BMP280;50712;49.506;10.400;2022-11-20T02:43:26;97485.09;;;4.39
64394;BMP280;50712;49.506;10.400;2022-11-20T02:43:56;97478.94;;;4.39
64394;BMP280;50712;49.506;10.400;2022-11-20T02:44:26;97489.72;;;4.39
64394;BMP280;50712;49.506;10.400;2022-11-20T02:44:57;97489.72;;;4.39
64394;BMP280;50712;49.506;10.400;2022-11-20T02:45:27;97487.00;;;4.39
64394;BMP280;50712;49.506;10.400;2022-11-20T02:45:57;97485.84;;;4.40
64394;BMP280;50712;49.506;10.400;2022-11-20T02:46:28;97483.91;;;4.40
64394;BMP280;50712;49.506;10.400;2022-11-20T02:46:58;97484.66;;;4.41
64394;BMP280;50712;49.506;10.400;2022-11-20T02:47:29;97484.66;;;4.41
64394;BMP280;50712;49.506;10.400;2022-11-20T02:47:59;97485.44;;;4.41
64394;BMP280;50712;49.506;10.400;2022-11-20T02:48:29;97488.91;;;4.42
64394;BMP280;50712;49.506;10.400;2022-11-20T02:49:00;97483.91;;;4.40
64394;BMP280;50712;49.506;10.400;2022-11-20T02:49:32;97485.44;;;4.41
64394;BMP280;50712;49.506;10.400;2022-11-20T02:50:03;97485.44;;;4.41
64394;BMP280;50712;49.506;10.400;2022-11-20T02:50:38;97490.81;;;4.41
64394;BMP280;50712;49.506;10.400;2022-11-20T02:51:09;97489.66;;;4.42
64394;BMP280;50712;49.506;10.400;2022-11-20T02:51:40;97482.72;;;4.41
64394;BMP280;50712;49.506;10.400;2022-11-20T02:52:10;97490.81;;;4.41
64394;BMP280;50712;49.506;10.400;2022-11-20T02:52:41;97490.81;;;4.41
64394;BMP280;50712;49.506;10.400;2022-11-20T02:53:12;97499.69;;;4.42
64394;BMP280;50712;49.506;10.400;2022-11-20T02:53:42;97485.44;;;4.41
64394;BMP280;50712;49.506;10.400;2022-11-20T02:54:12;97493.53;;;4.41
64394;BMP280;50712;49.506;10.400;2022-11-20T02:54:43;97488.91;;;4.42
64394;BMP280;50712;49.506;10.400;2022-11-20T02:55:13;97490.81;;;4.41
64394;BMP280;50712;49.506;10.400;2022-11-20T02:55:43;97489.66;;;4.42
64394;BMP280;50712;49.506;10.400;2022-11-20T02:56:14;97489.66;;;4.42
64394;BMP280;50712;49.506;10.400;2022-11-20T02:56:44;97490.44;;;4.43
64394;BMP280;50712;49.506;10.400;2022-11-20T02:57:14;97482.34;;;4.43
64394;BMP280;50712;49.506;10.400;2022-11-20T02:57:45;97493.84;;;4.43
64394;BMP280;50712;49.506;10.400;2022-11-20T02:58:15;97492.69;;;4.44
64394;BMP280;50712;49.506;10.400;2022-11-20T02:58:46;97485.38;;;4.45
64394;BMP280;50712;49.506;10.400;2022-11-20T02:59:16;97490.78;;;4.45
64394;BMP280;50712;49.506;10.400;2022-11-20T02:59:46;97492.31;;;4.46
64394;BMP280;50712;49.506;10.400;2022-11-20T03:00:17;97497.69;;;4.46
64394;BMP280;50712;49.506;10.400;2022-11-20T03:00:47;97493.03;;;4.46
64394;BMP280;50712;49.506;10.400;2022-11-20T03:01:18;97489.59;;;4.46
64394;BMP280;50712;49.506;10.400;2022-11-20T03:01:48;97491.53;;;4.45
64394;BMP280;50712;49.506;10.400;2022-11-20T03:02:18;97495.75;;;4.46
64394;BMP280;50712;49.506;10.400;2022-11-20T03:02:49;97490.34;;;4.46
64394;BMP280;50712;49.506;10.400;2022-11-20T03:03:19;97495.75;;;4.46
64394;BMP280;50712;49.506;10.400;2022-11-20T03:03:49;97498.44;;;4.46
64394;BMP280;50712;49.506;10.400;2022-11-20T03:04:20;97488.41;;;4.47
64394;BMP280;50712;49.506;10.400;2022-11-20T03:04:50;97498.44;;;4.46
64394;BMP280;50712;49.506;10.400;2022-11-20T03:05:21;97493.81;;;4.47
64394;BMP280;50712;49.506;10.400;2022-11-20T03:05:51;97496.94;;;4.45
64394;BMP280;50712;49.506;10.400;2022-11-20T03:06:21;97489.59;;;4.46
64394;BMP280;50712;49.506;10.400;2022-11-20T03:06:52;97487.31;;;4.44
64394;BMP280;50712;49.506;10.400;2022-11-20T03:07:23;97492.69;;;4.44
64394;BMP280;50712;49.506;10.400;2022-11-20T03:07:53;97496.94;;;4.45
64394;BMP280;50712;49.506;10.400;2022-11-20T03:08:23;97494.22;;;4.45
64394;BMP280;50712;49.506;10.400;2022-11-20T03:08:54;97488.84;;;4.45
64394;BMP280;50712;49.506;10.400;2022-11-20T03:09:24;97485.38;;;4.45
64394;BMP280;50712;49.506;10.400;2022-11-20T03:09:54;97484.59;;;4.44